createdAt,value
2016-12-24T00:00:20.291Z,19.86
2016-12-24T00:01:00.785Z,19.85
2016-12-24T00:01:41.283Z,19.8
2016-12-24T00:02:21.777Z,19.89
2016-12-24T00:03:02.280Z,19.86
2016-12-24T00:03:42.781Z,19.9
2016-12-24T00:04:23.278Z,19.9
2016-12-24T00:05:03.781Z,19.9
2016-12-24T00:05:44.273Z,19.87
2016-12-24T00:06:24.760Z,19.87
2016-12-24T00:07:05.246Z,19.9
2016-12-24T00:07:45.755Z,19.8
2016-12-24T00:08:26.242Z,19.93
2016-12-24T00:09:06.759Z,19.89
2016-12-24T00:09:47.247Z,19.89
2016-12-24T00:10:27.756Z,19.93
2016-12-24T00:11:08.250Z,19.92
2016-12-24T00:11:48.769Z,19.89
2016-12-24T00:12:29.234Z,19.9
2016-12-24T00:13:09.727Z,19.93
2016-12-24T00:13:50.225Z,19.92
2016-12-24T00:14:30.721Z,19.93
2016-12-24T00:15:12.122Z,19.87
2016-12-24T00:15:51.697Z,19.95
2016-12-24T00:16:32.196Z,19.85
2016-12-24T00:17:12.675Z,19.86
2016-12-24T00:17:53.167Z,19.92
2016-12-24T00:18:33.668Z,19.9
2016-12-24T00:19:14.165Z,19.83
2016-12-24T00:19:54.671Z,19.89
2016-12-24T00:20:35.165Z,19.78
2016-12-24T00:21:15.669Z,19.89
2016-12-24T00:21:56.640Z,19.89
2016-12-24T00:22:37.152Z,19.87
2016-12-24T00:23:17.637Z,19.89
2016-12-24T00:23:58.132Z,19.86
2016-12-24T00:24:38.631Z,19.87
2016-12-24T00:25:19.124Z,19.92
2016-12-24T00:25:59.629Z,19.82
2016-12-24T00:26:40.109Z,19.93
2016-12-24T00:27:20.620Z,19.87
2016-12-24T00:28:01.121Z,19.9
2016-12-24T00:28:41.627Z,19.93
2016-12-24T00:29:22.127Z,19.89
2016-12-24T00:30:02.626Z,19.85
2016-12-24T00:30:43.126Z,19.89
2016-12-24T00:31:23.619Z,19.9
2016-12-24T00:32:04.122Z,19.9
2016-12-24T00:32:44.617Z,19.87
2016-12-24T00:33:25.108Z,19.87
2016-12-24T00:34:05.592Z,19.86
2016-12-24T00:34:46.086Z,19.79
2016-12-24T00:35:26.585Z,19.75
2016-12-24T00:36:07.063Z,19.83
2016-12-24T00:36:47.560Z,19.85
2016-12-24T00:37:28.065Z,19.86
2016-12-24T00:38:08.563Z,19.9
2016-12-24T00:38:49.059Z,19.86
2016-12-24T00:39:29.551Z,19.87
2016-12-24T00:40:10.047Z,19.9
2016-12-24T00:40:51.131Z,19.85
2016-12-24T00:41:31.658Z,19.86
2016-12-24T00:42:12.143Z,19.83
2016-12-24T00:42:52.641Z,19.86
2016-12-24T00:43:33.124Z,19.79
2016-12-24T00:44:13.620Z,19.85
2016-12-24T00:44:54.119Z,19.8
2016-12-24T00:45:34.623Z,19.79
2016-12-24T00:46:15.119Z,19.82
2016-12-24T00:46:55.608Z,19.85
2016-12-24T00:47:36.131Z,19.83
2016-12-24T00:48:16.622Z,19.85
2016-12-24T00:48:57.115Z,19.8
2016-12-24T00:49:37.601Z,19.83
2016-12-24T00:50:18.094Z,19.87
2016-12-24T00:50:58.612Z,19.79
2016-12-24T00:51:39.081Z,19.85
2016-12-24T00:52:19.563Z,19.79
2016-12-24T00:53:00.068Z,19.74
2016-12-24T00:53:40.546Z,19.75
2016-12-24T00:54:21.055Z,19.82
2016-12-24T00:55:01.558Z,19.85
2016-12-24T00:55:42.046Z,19.82
2016-12-24T00:56:22.554Z,19.78
2016-12-24T00:57:03.056Z,19.87
2016-12-24T00:57:43.556Z,19.83
2016-12-24T00:58:24.044Z,19.85
2016-12-24T00:59:04.530Z,19.78
2016-12-24T00:59:45.012Z,19.8
2016-12-24T01:00:25.508Z,19.85
2016-12-24T01:01:06.009Z,19.83
2016-12-24T01:01:46.507Z,19.74
2016-12-24T01:02:26.999Z,19.78
2016-12-24T01:03:07.490Z,19.78
2016-12-24T01:03:48.889Z,19.83
2016-12-24T01:04:29.393Z,19.8
2016-12-24T01:05:09.889Z,19.79
2016-12-24T01:05:50.376Z,19.83
2016-12-24T01:06:30.887Z,19.78
2016-12-24T01:07:11.368Z,19.79
2016-12-24T01:07:51.856Z,19.75
2016-12-24T01:08:32.342Z,19.75
2016-12-24T01:09:12.838Z,19.79
2016-12-24T01:09:53.336Z,19.82
2016-12-24T01:10:33.827Z,19.8
2016-12-24T01:11:14.331Z,19.86
2016-12-24T01:11:54.818Z,19.8
2016-12-24T01:12:35.312Z,19.74
2016-12-24T01:13:15.809Z,19.8
2016-12-24T01:13:56.300Z,19.7
2016-12-24T01:14:36.810Z,19.82
2016-12-24T01:15:17.310Z,19.86
2016-12-24T01:15:57.808Z,19.78
2016-12-24T01:16:38.291Z,19.78
2016-12-24T01:17:19.496Z,19.82
2016-12-24T01:17:59.989Z,19.67
2016-12-24T01:18:40.499Z,19.75
2016-12-24T01:19:20.982Z,19.7
2016-12-24T01:20:01.495Z,19.7
2016-12-24T01:20:42.062Z,19.68
2016-12-24T01:21:22.592Z,19.83
2016-12-24T01:22:03.661Z,19.72
2016-12-24T01:22:43.555Z,19.75
2016-12-24T01:23:24.045Z,19.72
2016-12-24T01:24:04.542Z,19.67
2016-12-24T01:24:45.040Z,19.72
2016-12-24T01:25:25.536Z,19.8
2016-12-24T01:26:06.040Z,19.65
2016-12-24T01:26:46.527Z,19.82
2016-12-24T01:27:27.012Z,19.67
2016-12-24T01:28:07.515Z,19.72
2016-12-24T01:28:48.003Z,19.82
2016-12-24T01:29:28.522Z,19.82
2016-12-24T01:30:09.013Z,19.85
2016-12-24T01:30:49.512Z,19.85
2016-12-24T01:31:30.001Z,19.68
2016-12-24T01:32:10.510Z,19.71
2016-12-24T01:32:50.999Z,19.64
2016-12-24T01:33:31.484Z,19.72
2016-12-24T01:34:11.979Z,19.85
2016-12-24T01:34:52.475Z,19.74
2016-12-24T01:35:32.964Z,19.8
2016-12-24T01:36:13.450Z,19.7
2016-12-24T01:36:53.956Z,19.8
2016-12-24T01:37:34.447Z,19.82
2016-12-24T01:38:14.953Z,19.83
2016-12-24T01:38:55.444Z,19.71
2016-12-24T01:39:35.946Z,19.79
2016-12-24T01:40:16.454Z,19.72
2016-12-24T01:40:56.953Z,19.64
2016-12-24T01:41:37.452Z,19.7
2016-12-24T01:42:17.951Z,19.75
2016-12-24T01:42:58.443Z,19.74
2016-12-24T01:43:38.943Z,19.65
2016-12-24T01:44:19.454Z,19.82
2016-12-24T01:44:59.949Z,19.68
2016-12-24T01:45:40.433Z,19.74
2016-12-24T01:46:20.925Z,19.75
2016-12-24T01:47:01.415Z,19.74
2016-12-24T01:47:41.915Z,19.7
2016-12-24T01:48:22.402Z,19.67
2016-12-24T01:49:02.896Z,19.7
2016-12-24T01:49:43.393Z,19.64
2016-12-24T01:50:23.883Z,19.78
2016-12-24T01:51:04.389Z,19.75
2016-12-24T01:51:45.652Z,19.68
2016-12-24T01:52:25.364Z,19.72
2016-12-24T01:53:05.848Z,19.72
2016-12-24T01:53:46.345Z,19.64
2016-12-24T01:54:26.838Z,19.74
2016-12-24T01:55:07.337Z,19.75
2016-12-24T01:55:47.825Z,19.74
2016-12-24T01:56:28.326Z,19.74
2016-12-24T01:57:08.811Z,19.71
2016-12-24T01:57:49.303Z,19.74
2016-12-24T01:58:29.808Z,19.67
2016-12-24T01:59:10.303Z,19.71
2016-12-24T01:59:50.804Z,19.78
2016-12-24T02:00:31.286Z,19.75
2016-12-24T02:01:11.776Z,19.72
2016-12-24T02:01:52.253Z,19.75
2016-12-24T02:02:32.736Z,19.75
2016-12-24T02:03:13.229Z,19.78
2016-12-24T02:03:53.725Z,19.74
2016-12-24T02:04:34.197Z,19.72
2016-12-24T02:05:14.691Z,19.72
2016-12-24T02:05:55.175Z,19.72
2016-12-24T02:06:35.673Z,19.75
2016-12-24T02:07:16.164Z,19.75
2016-12-24T02:07:56.664Z,19.72
2016-12-24T02:08:37.171Z,19.71
2016-12-24T02:09:17.661Z,19.74
2016-12-24T02:09:58.168Z,19.74
2016-12-24T02:10:38.656Z,19.72
2016-12-24T02:11:19.162Z,19.72
2016-12-24T02:12:00.157Z,19.71
2016-12-24T02:12:40.139Z,19.68
2016-12-24T02:13:20.623Z,19.74
2016-12-24T02:14:01.116Z,19.78
2016-12-24T02:14:41.609Z,19.68
2016-12-24T02:15:22.115Z,19.72
2016-12-24T02:16:02.615Z,19.68
2016-12-24T02:16:43.111Z,19.72
2016-12-24T02:17:23.766Z,19.72
2016-12-24T02:18:04.265Z,19.68
2016-12-24T02:18:44.751Z,19.65
2016-12-24T02:19:25.260Z,19.7
2016-12-24T02:20:05.761Z,19.7
2016-12-24T02:20:46.255Z,19.74
2016-12-24T02:21:26.744Z,19.67
2016-12-24T02:22:07.255Z,19.75
2016-12-24T02:22:47.739Z,19.67
2016-12-24T02:23:28.225Z,19.65
2016-12-24T02:24:08.707Z,19.65
2016-12-24T02:24:49.204Z,19.75
2016-12-24T02:25:29.705Z,19.79
2016-12-24T02:26:10.195Z,19.63
2016-12-24T02:26:50.696Z,19.82
2016-12-24T02:27:31.194Z,19.74
2016-12-24T02:28:11.698Z,19.72
2016-12-24T02:28:52.200Z,19.64
2016-12-24T02:29:32.702Z,19.65
2016-12-24T02:30:13.203Z,19.79
2016-12-24T02:30:53.699Z,19.64
2016-12-24T02:31:34.197Z,19.75
2016-12-24T02:32:14.703Z,19.65
2016-12-24T02:32:55.197Z,19.78
2016-12-24T02:33:35.741Z,19.67
2016-12-24T02:34:16.246Z,19.7
2016-12-24T02:34:56.720Z,19.72
2016-12-24T02:35:37.211Z,19.65
2016-12-24T02:36:17.703Z,19.74
2016-12-24T02:36:58.197Z,19.74
2016-12-24T02:37:38.692Z,19.63
2016-12-24T02:38:19.184Z,19.64
2016-12-24T02:38:59.697Z,19.61
2016-12-24T02:39:40.194Z,19.63
2016-12-24T02:40:20.688Z,19.65
2016-12-24T02:42:18.348Z,19.74
2016-12-24T02:42:58.840Z,19.64
2016-12-24T02:43:39.347Z,19.72
2016-12-24T02:44:19.835Z,19.65
2016-12-24T02:45:00.311Z,19.64
2016-12-24T02:45:40.793Z,19.72
2016-12-24T02:46:21.282Z,19.72
2016-12-24T02:47:01.790Z,19.63
2016-12-24T02:47:42.280Z,19.72
2016-12-24T02:48:22.766Z,19.67
2016-12-24T02:49:03.259Z,19.64
2016-12-24T02:49:43.764Z,19.7
2016-12-24T02:50:24.946Z,19.65
2016-12-24T02:51:05.447Z,19.71
2016-12-24T02:51:45.939Z,19.72
2016-12-24T02:52:26.452Z,19.65
2016-12-24T02:53:06.948Z,19.63
2016-12-24T02:53:48.033Z,19.64
2016-12-24T02:54:27.940Z,19.67
2016-12-24T02:55:08.434Z,19.64
2016-12-24T02:55:48.923Z,19.72
2016-12-24T02:56:29.403Z,19.74
2016-12-24T02:57:09.924Z,19.6
2016-12-24T02:57:50.420Z,19.75
2016-12-24T02:58:30.911Z,19.7
2016-12-24T02:59:11.396Z,19.64
2016-12-24T02:59:51.890Z,19.64
2016-12-24T03:00:32.385Z,19.79
2016-12-24T03:01:12.882Z,19.64
2016-12-24T03:01:53.380Z,19.71
2016-12-24T03:04:06.191Z,19.65
2016-12-24T03:04:46.674Z,19.72
2016-12-24T03:05:27.173Z,19.7
2016-12-24T03:06:07.665Z,19.71
2016-12-24T03:06:48.153Z,19.71
2016-12-24T03:07:29.518Z,19.65
2016-12-24T03:08:10.028Z,19.65
2016-12-24T03:08:51.342Z,19.64
2016-12-24T03:09:30.998Z,19.65
2016-12-24T03:10:11.491Z,19.64
2016-12-24T03:10:51.984Z,19.71
2016-12-24T03:11:32.470Z,19.6
2016-12-24T03:12:12.957Z,19.67
2016-12-24T03:12:53.461Z,19.65
2016-12-24T03:13:33.961Z,19.64
2016-12-24T03:14:14.462Z,19.68
2016-12-24T03:14:54.948Z,19.64
2016-12-24T03:15:35.435Z,19.65
2016-12-24T03:16:15.910Z,19.64
2016-12-24T03:16:56.397Z,19.64
2016-12-24T03:17:36.884Z,19.71
2016-12-24T03:18:17.844Z,19.7
2016-12-24T03:18:57.865Z,19.72
2016-12-24T03:19:38.354Z,19.63
2016-12-24T03:20:18.850Z,19.7
2016-12-24T03:20:59.348Z,19.71
2016-12-24T03:21:39.849Z,19.72
2016-12-24T03:22:20.349Z,19.71
2016-12-24T03:23:00.850Z,19.74
2016-12-24T03:23:41.509Z,19.7
2016-12-24T03:24:22.002Z,19.64
2016-12-24T03:25:02.482Z,19.72
2016-12-24T03:26:49.997Z,19.74
2016-12-24T03:27:30.482Z,19.74
2016-12-24T03:28:11.835Z,19.74
2016-12-24T03:28:52.339Z,19.61
2016-12-24T03:29:32.835Z,19.61
2016-12-24T03:30:13.352Z,19.67
2016-12-24T03:30:53.848Z,19.72
2016-12-24T03:31:34.340Z,19.65
2016-12-24T03:32:14.830Z,19.64
2016-12-24T03:32:55.315Z,19.67
2016-12-24T03:33:36.653Z,19.75
2016-12-24T03:34:18.151Z,19.64
2016-12-24T03:34:57.667Z,19.68
2016-12-24T03:35:38.154Z,19.63
2016-12-24T03:36:18.643Z,19.74
2016-12-24T03:36:59.129Z,19.67
2016-12-24T03:37:40.493Z,19.67
2016-12-24T03:38:20.975Z,19.74
2016-12-24T03:39:01.458Z,19.71
2016-12-24T03:39:41.945Z,19.68
2016-12-24T03:40:23.153Z,19.6
2016-12-24T03:41:02.911Z,19.64
2016-12-24T03:41:43.395Z,19.68
2016-12-24T03:42:23.885Z,19.65
2016-12-24T03:43:04.390Z,19.67
2016-12-24T03:43:44.880Z,19.67
2016-12-24T03:44:25.368Z,19.67
2016-12-24T03:45:06.725Z,19.7
2016-12-24T03:45:47.222Z,19.65
2016-12-24T03:46:27.731Z,19.67
2016-12-24T03:47:08.236Z,19.71
2016-12-24T03:47:48.734Z,19.6
2016-12-24T03:48:29.235Z,19.79
2016-12-24T03:49:09.730Z,19.74
2016-12-24T03:49:50.203Z,19.68
2016-12-24T03:50:30.703Z,19.67
2016-12-24T03:51:11.183Z,19.71
2016-12-24T03:51:51.670Z,19.68
2016-12-24T03:52:32.149Z,19.68
2016-12-24T03:53:12.642Z,19.68
2016-12-24T03:53:53.125Z,19.67
2016-12-24T03:54:33.613Z,19.68
2016-12-24T03:55:14.121Z,19.71
2016-12-24T03:55:54.608Z,19.67
2016-12-24T03:56:35.095Z,19.7
2016-12-24T03:57:15.576Z,19.63
2016-12-24T03:57:56.061Z,19.7
2016-12-24T03:58:36.546Z,19.7
2016-12-24T03:59:17.039Z,19.67
2016-12-24T03:59:57.541Z,19.68
2016-12-24T04:00:38.016Z,19.68
2016-12-24T04:01:19.399Z,19.7
2016-12-24T04:01:59.891Z,19.7
2016-12-24T04:02:40.377Z,19.68
2016-12-24T04:03:20.873Z,19.65
2016-12-24T04:04:01.484Z,19.71
2016-12-24T04:04:41.970Z,19.63
2016-12-24T04:05:22.462Z,19.63
2016-12-24T04:06:02.959Z,19.65
2016-12-24T04:06:43.451Z,19.67
2016-12-24T04:07:23.936Z,19.67
2016-12-24T04:08:04.431Z,19.7
2016-12-24T04:08:44.930Z,19.7
2016-12-24T04:09:25.935Z,19.68
2016-12-24T04:10:06.435Z,19.72
2016-12-24T04:10:46.936Z,19.71
2016-12-24T04:11:27.439Z,19.68
2016-12-24T04:12:07.932Z,19.68
2016-12-24T04:12:48.417Z,19.67
2016-12-24T04:13:28.912Z,19.65
2016-12-24T04:14:09.405Z,19.71
2016-12-24T04:14:49.887Z,19.72
2016-12-24T04:15:30.383Z,19.65
2016-12-24T04:16:10.886Z,19.71
2016-12-24T04:16:51.379Z,19.72
2016-12-24T04:17:31.878Z,19.67
2016-12-24T04:18:12.378Z,19.68
2016-12-24T04:18:52.879Z,19.7
2016-12-24T04:19:33.384Z,19.68
2016-12-24T04:20:13.883Z,19.68
2016-12-24T04:20:54.376Z,19.63
2016-12-24T04:21:34.894Z,19.68
2016-12-24T04:22:15.378Z,19.65
2016-12-24T04:22:55.877Z,19.67
2016-12-24T04:23:36.367Z,19.74
2016-12-24T04:24:16.850Z,19.63
2016-12-24T04:24:57.328Z,19.63
2016-12-24T04:25:37.831Z,19.68
2016-12-24T04:26:18.322Z,19.71
2016-12-24T04:26:58.813Z,19.68
2016-12-24T04:27:39.290Z,19.67
2016-12-24T04:28:19.781Z,19.67
2016-12-24T04:29:00.257Z,19.68
2016-12-24T04:29:40.783Z,19.68
2016-12-24T04:30:21.269Z,19.72
2016-12-24T04:31:01.773Z,19.65
2016-12-24T04:31:42.269Z,19.67
2016-12-24T04:32:22.766Z,19.65
2016-12-24T04:33:03.261Z,19.67
2016-12-24T04:33:43.767Z,19.78
2016-12-24T04:34:24.264Z,19.72
2016-12-24T04:35:04.768Z,19.65
2016-12-24T04:35:45.265Z,19.72
2016-12-24T04:36:25.773Z,19.72
2016-12-24T04:37:06.267Z,19.7
2016-12-24T04:37:46.770Z,19.71
2016-12-24T04:38:27.258Z,19.65
2016-12-24T04:39:09.356Z,19.72
2016-12-24T04:39:49.852Z,19.71
2016-12-24T04:40:30.336Z,19.67
2016-12-24T04:41:10.841Z,19.67
2016-12-24T04:41:51.345Z,19.67
2016-12-24T04:42:31.845Z,19.65
2016-12-24T04:43:12.338Z,19.71
2016-12-24T04:43:52.841Z,19.71
2016-12-24T04:44:33.329Z,19.68
2016-12-24T04:45:13.821Z,19.7
2016-12-24T04:45:54.315Z,19.65
2016-12-24T04:46:34.814Z,19.74
2016-12-24T04:47:15.289Z,19.74
2016-12-24T04:47:55.790Z,19.68
2016-12-24T04:48:36.287Z,19.68
2016-12-24T04:49:16.765Z,19.7
2016-12-24T04:49:57.263Z,19.7
2016-12-24T04:50:37.740Z,19.67
2016-12-24T04:51:18.240Z,19.64
2016-12-24T04:51:58.732Z,19.61
2016-12-24T04:52:39.229Z,19.71
2016-12-24T04:53:19.724Z,19.68
2016-12-24T04:54:00.224Z,19.61
2016-12-24T04:54:40.865Z,19.71
2016-12-24T04:55:21.351Z,19.78
2016-12-24T04:56:01.837Z,19.72
2016-12-24T04:56:42.335Z,19.72
2016-12-24T04:57:22.835Z,19.7
2016-12-24T04:58:03.325Z,19.75
2016-12-24T04:58:43.833Z,19.63
2016-12-24T04:59:24.316Z,19.65
2016-12-24T05:00:04.807Z,19.64
2016-12-24T05:00:45.289Z,19.7
2016-12-24T05:01:25.783Z,19.72
2016-12-24T05:02:06.283Z,19.71
2016-12-24T05:02:46.778Z,19.68
2016-12-24T05:03:27.277Z,19.72
2016-12-24T05:04:07.770Z,19.63
2016-12-24T05:04:48.262Z,19.72
2016-12-24T05:05:28.764Z,19.63
2016-12-24T05:06:09.250Z,19.67
2016-12-24T05:06:49.746Z,19.63
2016-12-24T05:07:30.240Z,19.72
2016-12-24T05:08:10.724Z,19.67
2016-12-24T05:08:51.683Z,19.65
2016-12-24T05:09:31.689Z,19.7
2016-12-24T05:10:12.177Z,19.7
2016-12-24T05:10:52.673Z,19.68
2016-12-24T05:11:33.167Z,19.7
2016-12-24T05:12:13.656Z,19.75
2016-12-24T05:12:54.162Z,19.72
2016-12-24T05:13:34.667Z,19.68
2016-12-24T05:14:15.164Z,19.72
2016-12-24T05:14:55.650Z,19.74
2016-12-24T05:15:36.137Z,19.7
2016-12-24T05:16:16.617Z,19.65
2016-12-24T05:16:57.105Z,19.7
2016-12-24T05:17:37.610Z,19.72
2016-12-24T05:18:18.113Z,19.68
2016-12-24T05:18:58.600Z,19.61
2016-12-24T05:19:39.111Z,19.71
2016-12-24T05:20:19.595Z,19.72
2016-12-24T05:21:00.103Z,19.71
2016-12-24T05:21:40.608Z,19.6
2016-12-24T05:22:21.099Z,19.72
2016-12-24T05:23:01.569Z,19.63
2016-12-24T05:23:42.059Z,19.64
2016-12-24T05:24:22.557Z,19.75
2016-12-24T05:25:03.056Z,19.68
2016-12-24T05:25:43.553Z,19.7
2016-12-24T05:26:24.053Z,19.72
2016-12-24T05:27:04.539Z,19.67
2016-12-24T05:27:45.025Z,19.7
2016-12-24T05:28:25.511Z,19.67
2016-12-24T05:29:06.017Z,19.72
2016-12-24T05:29:46.504Z,19.71
2016-12-24T05:30:26.995Z,19.65
2016-12-24T05:31:07.499Z,19.7
2016-12-24T05:31:47.984Z,19.68
2016-12-24T05:32:28.483Z,19.71
2016-12-24T05:33:09.522Z,19.74
2016-12-24T05:33:50.003Z,19.67
2016-12-24T05:34:30.489Z,19.64
2016-12-24T05:35:10.980Z,19.65
2016-12-24T05:35:51.465Z,19.72
2016-12-24T05:36:31.979Z,19.67
2016-12-24T05:37:12.444Z,19.65
2016-12-24T05:37:52.958Z,19.74
2016-12-24T05:38:33.425Z,19.64
2016-12-24T05:39:13.921Z,19.71
2016-12-24T05:39:54.416Z,19.64
2016-12-24T05:40:34.901Z,19.65
2016-12-24T05:41:15.403Z,19.72
2016-12-24T05:41:55.892Z,19.71
2016-12-24T05:42:36.400Z,19.6
2016-12-24T05:43:16.895Z,19.71
2016-12-24T05:43:58.195Z,19.63
2016-12-24T05:44:37.894Z,19.64
2016-12-24T05:45:18.386Z,19.61
2016-12-24T05:45:58.888Z,19.68
2016-12-24T05:46:39.388Z,19.7
2016-12-24T05:47:19.887Z,19.68
2016-12-24T05:48:00.383Z,19.7
2016-12-24T05:48:40.882Z,19.64
2016-12-24T05:49:21.394Z,19.67
2016-12-24T05:50:01.892Z,19.71
2016-12-24T05:50:42.380Z,19.7
2016-12-24T05:51:22.879Z,19.61
2016-12-24T05:52:03.387Z,19.6
2016-12-24T05:52:43.885Z,19.65
2016-12-24T05:53:24.386Z,19.6
2016-12-24T05:54:04.893Z,19.7
2016-12-24T05:54:45.382Z,19.64
2016-12-24T05:55:25.887Z,19.72
2016-12-24T05:56:07.061Z,19.61
2016-12-24T05:56:47.555Z,19.61
2016-12-24T05:57:28.046Z,19.7
2016-12-24T05:58:08.536Z,19.72
2016-12-24T05:58:49.023Z,19.61
2016-12-24T05:59:29.519Z,19.68
2016-12-24T06:00:10.018Z,19.64
2016-12-24T06:00:50.496Z,19.71
2016-12-24T06:01:30.986Z,19.63
2016-12-24T06:02:11.492Z,19.65
2016-12-24T06:02:51.985Z,19.61
2016-12-24T06:03:32.468Z,19.75
2016-12-24T06:04:12.980Z,19.64
2016-12-24T06:04:53.493Z,19.68
2016-12-24T06:05:34.702Z,19.64
2016-12-24T06:06:14.456Z,19.61
2016-12-24T06:06:54.944Z,19.64
2016-12-24T06:07:35.438Z,19.67
2016-12-24T06:08:15.922Z,19.7
2016-12-24T06:08:56.430Z,19.7
2016-12-24T06:09:36.933Z,19.61
2016-12-24T06:10:17.418Z,19.71
2016-12-24T06:10:57.900Z,19.61
2016-12-24T06:11:38.383Z,19.61
2016-12-24T06:12:18.863Z,19.57
2016-12-24T06:12:59.345Z,19.65
2016-12-24T06:13:39.841Z,19.63
2016-12-24T06:14:20.330Z,19.61
2016-12-24T06:15:00.824Z,19.63
2016-12-24T06:15:41.320Z,19.64
2016-12-24T06:16:21.822Z,19.6
2016-12-24T06:17:02.307Z,19.7
2016-12-24T06:17:42.817Z,19.56
2016-12-24T06:18:23.330Z,19.6
2016-12-24T06:19:03.824Z,19.61
2016-12-24T06:19:44.317Z,19.65
2016-12-24T06:20:24.826Z,19.63
2016-12-24T06:21:05.313Z,19.65
2016-12-24T06:21:45.799Z,19.68
2016-12-24T06:22:26.295Z,19.61
2016-12-24T06:23:06.786Z,19.63
2016-12-24T06:23:47.271Z,19.61
2016-12-24T06:24:27.765Z,19.65
2016-12-24T06:25:08.268Z,19.67
2016-12-24T06:25:48.761Z,19.65
2016-12-24T06:26:29.852Z,19.68
2016-12-24T06:27:10.349Z,19.68
2016-12-24T06:27:50.848Z,19.72
2016-12-24T06:28:31.331Z,19.7
2016-12-24T06:29:11.818Z,19.64
2016-12-24T06:29:52.307Z,19.67
2016-12-24T06:30:32.827Z,19.63
2016-12-24T06:31:13.324Z,19.61
2016-12-24T06:31:53.811Z,19.7
2016-12-24T06:32:34.297Z,19.61
2016-12-24T06:33:14.792Z,19.64
2016-12-24T06:33:55.291Z,19.68
2016-12-24T06:34:35.768Z,19.65
2016-12-24T06:35:16.259Z,19.64
2016-12-24T06:35:57.484Z,19.63
2016-12-24T06:36:37.982Z,19.63
2016-12-24T06:37:18.514Z,19.57
2016-12-24T06:37:58.950Z,19.6
2016-12-24T06:38:39.454Z,19.61
2016-12-24T06:39:19.931Z,19.67
2016-12-24T06:40:00.426Z,19.68
2016-12-24T06:40:40.924Z,19.61
2016-12-24T06:41:21.424Z,19.67
2016-12-24T06:42:01.921Z,19.65
2016-12-24T06:42:42.423Z,19.68
2016-12-24T06:43:22.929Z,19.6
2016-12-24T06:44:03.415Z,19.68
2016-12-24T06:44:43.902Z,19.64
2016-12-24T06:45:24.368Z,19.67
2016-12-24T06:46:04.865Z,19.67
2016-12-24T06:46:45.349Z,19.6
2016-12-24T06:47:25.829Z,19.61
2016-12-24T06:48:06.316Z,19.68
2016-12-24T06:48:46.817Z,19.6
2016-12-24T06:49:27.309Z,19.64
2016-12-24T06:50:07.794Z,19.67
2016-12-24T06:50:48.275Z,19.65
2016-12-24T06:51:28.768Z,19.57
2016-12-24T06:52:09.264Z,19.67
2016-12-24T06:52:49.752Z,19.64
2016-12-24T06:53:30.241Z,19.63
2016-12-24T06:54:11.220Z,19.68
2016-12-24T06:54:51.189Z,19.6
2016-12-24T06:55:31.678Z,19.63
2016-12-24T06:56:12.721Z,19.61
2016-12-24T06:56:52.651Z,19.57
2016-12-24T06:57:33.155Z,19.67
2016-12-24T06:58:14.222Z,19.6
2016-12-24T06:58:54.746Z,19.61
2016-12-24T06:59:35.231Z,19.6
2016-12-24T07:00:15.724Z,19.57
2016-12-24T07:00:56.221Z,19.64
2016-12-24T07:01:36.725Z,19.61
2016-12-24T07:02:17.214Z,19.61
2016-12-24T07:02:57.723Z,19.56
2016-12-24T07:03:38.217Z,19.64
2016-12-24T07:04:18.712Z,19.63
2016-12-24T07:04:59.216Z,19.61
2016-12-24T07:05:39.712Z,19.63
2016-12-24T07:06:20.455Z,19.61
2016-12-24T07:07:00.968Z,19.6
2016-12-24T07:07:41.459Z,19.56
2016-12-24T07:08:21.948Z,19.63
2016-12-24T07:09:02.440Z,19.68
2016-12-24T07:09:43.725Z,19.67
2016-12-24T07:10:23.418Z,19.6
2016-12-24T07:11:03.905Z,19.61
2016-12-24T07:11:44.397Z,19.63
2016-12-24T07:12:24.887Z,19.67
2016-12-24T07:13:05.385Z,19.65
2016-12-24T07:13:45.860Z,19.68
2016-12-24T07:14:26.349Z,19.7
2016-12-24T07:15:06.837Z,19.68
2016-12-24T07:15:47.330Z,19.67
2016-12-24T07:16:27.826Z,19.71
2016-12-24T07:17:08.314Z,19.68
2016-12-24T07:17:48.799Z,19.65
2016-12-24T07:18:29.311Z,19.56
2016-12-24T07:19:09.801Z,19.63
2016-12-24T07:19:50.304Z,19.63
2016-12-24T07:20:30.807Z,19.7
2016-12-24T07:21:11.301Z,19.7
2016-12-24T07:21:51.800Z,19.61
2016-12-24T07:22:32.303Z,19.71
2016-12-24T07:23:12.775Z,19.71
2016-12-24T07:23:53.266Z,19.7
2016-12-24T07:24:33.752Z,19.71
2016-12-24T07:25:14.233Z,19.72
2016-12-24T07:25:54.724Z,19.72
2016-12-24T07:26:35.222Z,19.7
2016-12-24T07:27:15.717Z,19.67
2016-12-24T07:27:56.732Z,19.67
2016-12-24T07:28:36.698Z,19.63
2016-12-24T07:29:17.190Z,19.72
2016-12-24T07:29:57.676Z,19.68
2016-12-24T07:30:38.165Z,19.7
2016-12-24T07:31:18.653Z,19.7
2016-12-24T07:31:59.145Z,19.64
2016-12-24T07:32:39.639Z,19.67
2016-12-24T07:33:20.124Z,19.71
2016-12-24T07:34:00.630Z,19.72
2016-12-24T07:34:41.138Z,19.72
2016-12-24T07:35:21.629Z,19.68
2016-12-24T07:36:02.137Z,19.67
2016-12-24T07:36:42.652Z,19.68
2016-12-24T07:37:23.139Z,19.7
2016-12-24T07:38:03.628Z,19.65
2016-12-24T07:38:44.127Z,19.67
2016-12-24T07:39:24.614Z,19.7
2016-12-24T07:40:05.092Z,19.68
2016-12-24T07:40:45.584Z,19.71
2016-12-24T07:41:26.083Z,19.61
2016-12-24T07:42:06.563Z,19.74
2016-12-24T07:42:47.074Z,19.7
2016-12-24T07:43:27.568Z,19.7
2016-12-24T07:44:08.077Z,19.71
2016-12-24T07:44:49.235Z,19.68
2016-12-24T07:45:29.047Z,19.71
2016-12-24T07:46:09.542Z,19.67
2016-12-24T07:46:50.047Z,19.68
2016-12-24T07:47:30.517Z,19.64
2016-12-24T07:48:10.992Z,19.63
2016-12-24T07:48:51.486Z,19.61
2016-12-24T07:49:32.584Z,19.67
2016-12-24T07:50:13.074Z,19.68
2016-12-24T07:50:53.581Z,19.71
2016-12-24T07:51:34.086Z,19.67
2016-12-24T07:52:14.583Z,19.68
2016-12-24T07:52:55.077Z,19.65
2016-12-24T07:53:35.582Z,19.65
2016-12-24T07:54:16.071Z,19.75
2016-12-24T07:54:56.577Z,19.67
2016-12-24T07:55:37.072Z,19.65
2016-12-24T07:56:17.582Z,19.65
2016-12-24T07:56:58.079Z,19.63
2016-12-24T07:57:38.567Z,19.71
2016-12-24T07:58:19.070Z,19.71
2016-12-24T07:59:00.239Z,19.61
2016-12-24T07:59:40.063Z,19.74
2016-12-24T08:00:20.567Z,19.64
2016-12-24T08:01:01.066Z,19.63
2016-12-24T08:01:41.565Z,19.67
2016-12-24T08:02:22.066Z,19.68
2016-12-24T08:03:02.574Z,19.74
2016-12-24T08:03:43.072Z,19.7
2016-12-24T08:04:23.569Z,19.71
2016-12-24T08:05:04.742Z,19.71
2016-12-24T08:05:44.541Z,19.74
2016-12-24T08:06:25.024Z,19.72
2016-12-24T08:07:05.521Z,19.74
2016-12-24T08:07:45.988Z,19.75
2016-12-24T08:08:26.473Z,19.72
2016-12-24T08:09:06.988Z,19.74
2016-12-24T08:09:47.484Z,19.74
2016-12-24T08:10:27.987Z,19.72
2016-12-24T08:11:08.462Z,19.71
2016-12-24T08:11:48.948Z,19.74
2016-12-24T08:12:29.436Z,19.74
2016-12-24T08:13:09.933Z,19.68
2016-12-24T08:13:50.433Z,19.74
2016-12-24T08:14:30.914Z,19.75
2016-12-24T08:15:12.243Z,19.7
2016-12-24T08:15:51.908Z,19.72
2016-12-24T08:16:32.397Z,19.74
2016-12-24T08:17:12.897Z,19.74
2016-12-24T08:17:53.392Z,19.71
2016-12-24T08:18:33.879Z,19.78
2016-12-24T08:19:14.375Z,19.72
2016-12-24T08:19:54.875Z,19.68
2016-12-24T08:20:35.355Z,19.79
2016-12-24T08:21:15.850Z,19.64
2016-12-24T08:21:56.346Z,19.7
2016-12-24T08:22:36.837Z,19.71
2016-12-24T08:23:17.323Z,19.71
2016-12-24T08:23:57.818Z,19.75
2016-12-24T08:24:38.319Z,19.7
2016-12-24T08:25:18.808Z,19.79
2016-12-24T08:25:59.324Z,19.79
2016-12-24T08:26:39.816Z,19.65
2016-12-24T08:27:20.314Z,19.7
2016-12-24T08:28:00.798Z,19.83
2016-12-24T08:28:41.296Z,19.67
2016-12-24T08:29:21.790Z,19.7
2016-12-24T08:30:03.167Z,19.65
2016-12-24T08:30:43.663Z,19.67
2016-12-24T08:31:24.162Z,19.74
2016-12-24T08:32:04.645Z,19.83
2016-12-24T08:32:45.131Z,19.67
2016-12-24T08:33:25.609Z,19.7
2016-12-24T08:34:06.749Z,19.8
2016-12-24T08:34:46.605Z,19.68
2016-12-24T08:35:27.097Z,19.85
2016-12-24T08:36:07.583Z,19.79
2016-12-24T08:36:48.075Z,19.7
2016-12-24T08:37:28.571Z,19.8
2016-12-24T08:38:09.051Z,19.8
2016-12-24T08:38:49.537Z,19.83
2016-12-24T08:39:30.025Z,19.8
2016-12-24T08:40:10.520Z,19.75
2016-12-24T08:40:51.020Z,19.79
2016-12-24T08:41:31.510Z,19.78
2016-12-24T08:42:12.014Z,19.75
2016-12-24T08:42:52.501Z,19.74
2016-12-24T08:43:32.979Z,19.78
2016-12-24T08:44:13.491Z,19.82
2016-12-24T08:44:54.075Z,19.82
2016-12-24T08:45:34.493Z,19.83
2016-12-24T08:46:14.995Z,19.78
2016-12-24T08:46:55.469Z,19.83
2016-12-24T08:47:35.962Z,19.78
2016-12-24T08:48:16.465Z,19.83